createdAt,value
2019-04-05T21:36:02.686Z,0
2019-04-05T21:36:17.155Z,0
2019-04-05T21:36:31.910Z,0
2019-04-05T21:36:47.541Z,0
2019-04-05T21:37:02.229Z,0
2019-04-05T21:38:43.770Z,0
2019-04-05T21:38:59.279Z,0
2019-04-05T21:39:13.806Z,0
2019-04-05T21:39:29.205Z,0
2019-04-05T21:39:44.599Z,0
2019-04-05T21:39:58.946Z,0
2019-04-05T21:40:14.296Z,0
2019-04-05T21:40:28.721Z,0
2019-04-05T21:40:43.103Z,0
2019-04-05T21:40:57.478Z,0
2019-04-05T21:41:13.238Z,0
2019-04-05T21:41:27.224Z,0
2019-04-05T21:41:41.562Z,0
2019-04-05T21:41:55.950Z,0
2019-04-05T21:42:10.329Z,0
2019-04-05T21:42:24.702Z,0
2019-04-05T21:42:39.121Z,0
2019-04-05T21:42:53.542Z,0
2019-04-05T21:43:07.984Z,0
2019-04-05T21:43:22.394Z,0
2019-04-05T21:43:36.764Z,0
2019-04-05T21:43:52.260Z,0
2019-04-05T21:44:06.627Z,0
2019-04-05T21:44:21.041Z,0
2019-04-05T21:44:35.449Z,0
2019-04-05T21:44:51.827Z,0
2019-04-05T21:45:07.207Z,0
2019-04-05T21:45:21.587Z,0
2019-04-05T21:45:35.969Z,0
2019-04-05T21:45:51.324Z,0
2019-04-05T21:46:05.707Z,0
2019-04-05T21:46:20.064Z,0
2019-04-05T21:46:36.195Z,0
2019-04-05T21:46:51.574Z,0
2019-04-05T21:47:05.960Z,0
2019-04-05T21:47:20.307Z,0
2019-04-05T21:47:34.710Z,0
2019-04-05T21:47:49.073Z,0
2019-04-05T21:48:03.426Z,0
2019-04-05T21:48:18.316Z,0
2019-04-05T21:48:33.705Z,0
2019-04-05T21:48:48.066Z,0
2019-04-05T21:49:02.439Z,0
2019-04-05T21:49:16.882Z,0
2019-04-05T21:49:31.246Z,0
2019-04-05T21:49:46.618Z,0
2019-04-05T21:50:01.012Z,0
2019-04-05T21:50:15.379Z,0
2019-04-05T21:50:29.785Z,0
2019-04-05T21:50:44.138Z,0
2019-04-05T21:50:58.539Z,0
2019-04-05T21:51:12.938Z,0
2019-04-05T21:51:28.272Z,0
2019-04-05T21:51:43.652Z,0
2019-04-05T21:51:58.026Z,0
2019-04-05T21:52:12.408Z,0
2019-04-05T21:52:26.834Z,0
2019-04-05T21:52:41.235Z,0
2019-04-05T21:52:55.661Z,0
2019-04-05T21:53:11.020Z,0
2019-04-05T21:53:25.433Z,0
2019-04-05T21:53:42.631Z,0
2019-04-05T21:53:58.733Z,0
2019-04-05T21:54:13.104Z,0
2019-04-05T21:54:28.460Z,0
2019-04-05T21:54:48.041Z,0
2019-04-05T21:55:02.193Z,53.299999
2019-04-05T21:55:16.580Z,53.299999
2019-04-05T21:55:30.963Z,53.299999
2019-04-05T21:55:45.348Z,31.4
2019-04-05T21:55:59.729Z,44.799999
2019-04-05T21:56:14.138Z,44.799999
2019-04-05T21:56:28.539Z,44.799999
2019-04-05T21:56:45.363Z,44.799999
2019-04-05T21:56:58.324Z,44.799999
2019-04-05T21:57:12.724Z,44.799999
2019-04-05T21:57:28.132Z,27.200001
2019-04-05T21:57:42.521Z,33.5
2019-04-05T21:57:56.909Z,39.900002
2019-04-05T21:58:11.254Z,48
2019-04-05T21:58:26.676Z,53.700001
2019-04-05T21:58:41.046Z,53.700001
2019-04-05T21:58:55.420Z,60
2019-04-05T21:59:09.819Z,60
2019-04-05T21:59:25.253Z,60
2019-04-05T21:59:39.647Z,47.400002
2019-04-05T21:59:54.363Z,49.799999
2019-04-05T22:00:08.799Z,49.5
2019-04-05T22:00:26.494Z,62.5
2019-04-05T22:00:41.198Z,112.4
2019-04-05T22:00:56.423Z,108.69999
2019-04-05T22:01:13.837Z,76.400002
2019-04-05T22:01:28.603Z,59.700001
2019-04-05T22:01:44.564Z,59.700001
2019-04-05T22:01:58.994Z,51.900002
2019-04-05T22:02:13.438Z,52.599998
2019-04-05T22:02:27.817Z,64.800003
2019-04-05T22:02:43.165Z,57.799999
2019-04-05T22:02:58.416Z,57.799999
2019-04-05T22:03:13.035Z,55.599998
2019-04-05T22:03:27.500Z,60.299999
2019-04-05T22:03:43.036Z,63.5
2019-04-05T22:03:58.744Z,58.5
2019-04-05T22:04:13.107Z,65.5
2019-04-05T22:04:37.172Z,57
2019-04-05T22:04:52.627Z,56
2019-04-05T22:05:08.052Z,60.799999
2019-04-05T22:05:22.454Z,60.799999
2019-04-05T22:05:37.223Z,50
2019-04-05T22:05:52.807Z,54.200001
2019-04-05T22:06:13.970Z,47.5
2019-04-05T22:06:28.482Z,39.400002
2019-04-05T22:06:43.766Z,36.099998
2019-04-05T22:06:58.768Z,40.799999
2019-04-05T22:07:14.054Z,42.599998
2019-04-05T22:07:30.909Z,47.599998
2019-04-05T22:07:45.462Z,51.5
2019-04-05T22:08:01.697Z,51.299999
2019-04-05T22:08:17.938Z,50.599998
2019-04-05T22:08:35.726Z,50.599998
2019-04-05T22:08:52.341Z,50.599998
2019-04-05T22:09:08.372Z,48.299999
2019-04-05T22:09:22.790Z,47.099998
2019-04-05T22:09:39.184Z,46.5
2019-04-05T22:09:53.872Z,45.799999
2019-04-05T22:10:09.354Z,47.799999
2019-04-05T22:10:23.761Z,43.900002
2019-04-05T22:10:39.154Z,40.900002
2019-04-05T22:10:54.376Z,42.099998
2019-04-05T22:11:09.584Z,43.900002
2019-04-05T22:11:27.707Z,46.599998
2019-04-05T22:11:41.648Z,46.599998
2019-04-05T22:11:56.257Z,45.400002
2019-04-05T22:12:12.931Z,46.200001
2019-04-05T22:12:30.974Z,47.799999
2019-04-05T22:12:47.931Z,50.099998
2019-04-05T22:13:06.989Z,49.799999
2019-04-05T22:13:25.910Z,48.200001
2019-04-05T22:13:42.195Z,48.200001
2019-04-05T22:13:59.005Z,51.200001
2019-04-05T22:14:13.437Z,54.700001
2019-04-05T22:14:31.032Z,55.400002
2019-04-05T22:14:51.770Z,55.400002
2019-04-05T22:15:06.182Z,57.400002
2019-04-05T22:15:26.141Z,55.200001
2019-04-05T22:15:41.831Z,58
2019-04-05T22:15:58.195Z,58.900002
2019-04-05T22:16:14.688Z,57.5
2019-04-05T22:16:29.168Z,56.900002
2019-04-05T22:16:46.490Z,58.599998
2019-04-05T22:17:01.475Z,59.099998
2019-04-05T22:17:18.035Z,57.400002
2019-04-05T22:17:33.840Z,59.599998
2019-04-05T22:17:48.838Z,64.300003
2019-04-05T22:18:05.941Z,64.599998
2019-04-05T22:18:20.418Z,62.200001
2019-04-05T22:18:35.212Z,62.900002
2019-04-05T22:18:58.545Z,63.5
2019-04-05T22:19:13.514Z,61.900002
2019-04-05T22:19:30.178Z,61.900002
2019-04-05T22:19:46.687Z,60.5
2019-04-05T22:20:03.991Z,61.299999
2019-04-05T22:20:18.767Z,61.299999
2019-04-05T22:20:34.945Z,60.400002
2019-04-05T22:20:49.994Z,60
2019-04-05T22:21:05.694Z,56.5
2019-04-05T22:21:25.418Z,56.799999
2019-04-05T22:21:39.841Z,59.099998
2019-04-05T22:21:54.728Z,60.5
2019-04-05T22:22:09.465Z,62.400002
2019-04-05T22:22:27.259Z,58.200001
2019-04-05T22:22:41.938Z,58.200001
2019-04-05T22:22:57.262Z,54.099998
2019-04-05T22:23:12.601Z,56.5
2019-04-05T22:23:27.776Z,60.700001
2019-04-05T22:23:43.350Z,62.400002
2019-04-05T22:23:58.464Z,61.5
2019-04-05T22:24:14.170Z,60.900002
2019-04-05T22:24:28.812Z,60.099998
2019-04-05T22:24:43.785Z,61.099998
2019-04-05T22:25:05.319Z,59.200001
2019-04-05T22:25:19.765Z,59
2019-04-05T22:25:35.069Z,55.599998
2019-04-05T22:25:49.847Z,54.5
2019-04-05T22:26:04.522Z,56.700001
2019-04-05T22:26:19.889Z,60.299999
2019-04-05T22:26:34.396Z,61.700001
2019-04-05T22:26:49.908Z,61.299999
2019-04-05T22:27:05.149Z,64.699997
2019-04-05T22:27:19.651Z,66.199997
2019-04-05T22:27:35.344Z,62.200001
2019-04-05T22:27:50.296Z,62.200001
2019-04-05T22:28:05.201Z,59.799999
2019-04-05T22:28:22.705Z,59.799999
2019-04-05T22:28:37.553Z,59.299999
2019-04-05T22:28:52.413Z,58.700001
2019-04-05T22:29:07.753Z,57.5
2019-04-05T22:29:22.253Z,57
2019-04-05T22:29:37.288Z,59.200001
2019-04-05T22:29:51.891Z,56.700001
2019-04-05T22:30:08.025Z,55.5
2019-04-05T22:30:22.624Z,57.5
2019-04-05T22:30:37.010Z,58.200001
2019-04-05T22:30:51.945Z,53.099998
2019-04-05T22:31:07.712Z,48.799999
2019-04-05T22:31:22.180Z,48.799999
2019-04-05T22:31:36.920Z,64.400002
2019-04-05T22:31:51.481Z,66.599998
2019-04-05T22:32:06.275Z,66.900002
2019-04-05T22:32:22.367Z,67
2019-04-05T22:32:37.030Z,66.800003
2019-04-05T22:32:52.143Z,68
2019-04-05T22:33:06.790Z,66.300003
2019-04-05T22:33:21.964Z,65.800003
2019-04-05T22:33:38.057Z,53
2019-04-05T22:33:52.595Z,54.700001
2019-04-05T22:34:08.858Z,57.099998
2019-04-05T22:34:23.812Z,59.400002
2019-04-05T22:34:39.396Z,59.099998
2019-04-05T22:34:54.543Z,56.599998
2019-04-05T22:35:09.782Z,55.200001
2019-04-05T22:35:25.777Z,56.200001
2019-04-05T22:35:40.867Z,58.5
2019-04-05T22:35:55.929Z,56.400002
2019-04-05T22:36:11.907Z,53.299999
2019-04-05T22:36:26.511Z,59.400002
2019-04-05T22:36:42.169Z,82.300003
2019-04-05T22:36:57.056Z,82
2019-04-05T22:37:12.565Z,76.400002
2019-04-05T22:37:28.593Z,72
2019-04-05T22:37:43.130Z,67.5
2019-04-05T22:37:58.206Z,62.599998
2019-04-05T22:38:12.919Z,58.599998
2019-04-05T22:38:27.361Z,57
2019-04-05T22:38:42.827Z,56
2019-04-05T22:38:57.506Z,57.200001
2019-04-05T22:39:12.298Z,57.700001
2019-04-05T22:39:28.470Z,52.900002
2019-04-05T22:39:43.904Z,52.200001
2019-04-05T22:39:59.320Z,52.200001
2019-04-05T22:40:14.013Z,45
2019-04-05T22:40:30.243Z,44.5
2019-04-05T22:40:44.921Z,44.5
2019-04-05T22:41:00.015Z,44.5
2019-04-05T22:41:14.738Z,45.599998
2019-04-05T22:41:29.844Z,44.700001
2019-04-05T22:41:47.357Z,43.099998
2019-04-05T22:42:04.129Z,43.099998
2019-04-05T22:42:21.524Z,41.900002
2019-04-05T22:42:37.643Z,44.799999
2019-04-05T22:42:52.685Z,44.799999
2019-04-05T22:43:08.772Z,56.299999
2019-04-05T22:43:23.607Z,63.700001
2019-04-05T22:43:39.423Z,68.300003
2019-04-05T22:43:54.228Z,68.5
2019-04-05T22:44:09.172Z,60.900002
2019-04-05T22:44:24.978Z,52.799999
2019-04-05T22:44:46.941Z,52.799999
2019-04-05T22:45:01.587Z,35.700001
2019-04-05T22:45:17.026Z,44.400002
2019-04-05T22:45:33.181Z,44.400002
2019-04-05T22:45:47.648Z,49.900002
2019-04-05T22:46:03.626Z,51.099998
2019-04-05T22:46:18.367Z,51.099998
2019-04-05T22:46:33.783Z,51.099998
2019-04-05T22:46:48.997Z,52
2019-04-05T22:47:03.459Z,52.599998
2019-04-05T22:47:19.955Z,54.200001
2019-04-05T22:47:36.520Z,54.200001
2019-04-05T22:47:51.150Z,53
2019-04-05T22:48:07.011Z,51.900002
2019-04-05T22:48:21.947Z,56.700001
2019-04-05T22:48:37.333Z,62.5
2019-04-05T22:48:53.647Z,66
2019-04-05T22:49:08.289Z,67.300003
2019-04-05T22:49:24.873Z,70.800003
2019-04-05T22:49:39.501Z,73.300003
2019-04-05T22:49:55.448Z,69.5
2019-04-05T22:50:10.844Z,65.800003
2019-04-05T22:50:25.677Z,65.900002
2019-04-05T22:50:42.254Z,68.699997
2019-04-05T22:50:57.266Z,64.699997
2019-04-05T22:51:12.534Z,61.799999
2019-04-05T22:51:27.519Z,53.799999
2019-04-05T22:51:42.278Z,46
2019-04-05T22:51:57.341Z,40.599998
2019-04-05T22:52:12.574Z,38.400002
2019-04-05T22:52:26.941Z,32.400002
2019-04-05T22:52:42.105Z,30.799999
2019-04-05T22:52:57.118Z,35.299999
2019-04-05T22:53:11.995Z,39.700001
2019-04-05T22:53:27.268Z,43.299999
2019-04-05T22:53:43.088Z,48.299999
2019-04-05T22:53:57.736Z,53.299999
2019-04-05T22:54:12.494Z,55.5
2019-04-05T22:54:28.569Z,58.400002
2019-04-05T22:54:43.706Z,55.700001
2019-04-05T22:55:10.027Z,55.700001
2019-04-05T22:55:19.194Z,55.700001
2019-04-05T22:55:34.752Z,55.700001
2019-04-05T22:55:49.927Z,55.700001
2019-04-05T22:56:04.652Z,55.700001
2019-04-05T22:56:20.129Z,55.700001
2019-04-05T22:56:34.764Z,55.700001
2019-04-05T22:56:49.952Z,64.199997
2019-04-05T22:57:05.676Z,63.700001
2019-04-05T22:57:20.120Z,64.300003
2019-04-05T22:57:37.622Z,64.300003
2019-04-05T22:57:54.985Z,63.700001
2019-04-05T22:58:10.137Z,63.700001
2019-04-05T22:58:25.911Z,63.099998
2019-04-05T22:58:40.921Z,63
2019-04-05T22:58:56.348Z,61.700001
2019-04-05T22:59:12.728Z,63.099998
2019-04-05T22:59:27.434Z,63.099998
2019-04-05T22:59:42.263Z,61.5
2019-04-05T22:59:56.977Z,60
2019-04-05T23:00:13.197Z,56.400002
2019-04-05T23:00:28.858Z,54.900002
2019-04-05T23:00:44.344Z,52.900002
2019-04-05T23:01:00.410Z,53.200001
2019-04-05T23:01:15.154Z,53.200001
2019-04-05T23:01:31.643Z,47.599998
2019-04-05T23:01:47.585Z,41.099998
2019-04-05T23:02:03.759Z,19.5
2019-04-05T23:02:20.439Z,8.9
2019-04-05T23:02:35.483Z,5
2019-04-05T23:02:50.328Z,7.4
2019-04-05T23:03:06.359Z,13.9
2019-04-05T23:03:21.183Z,19.5
2019-04-05T23:03:36.416Z,26.1
2019-04-05T23:03:51.588Z,34.700001
2019-04-05T23:04:06.290Z,37.599998
2019-04-05T23:04:21.389Z,46.700001
2019-04-05T23:04:36.415Z,55.700001
2019-04-05T23:04:51.256Z,59.5
2019-04-05T23:05:07.418Z,62.099998
2019-04-05T23:05:23.152Z,62.200001
2019-04-05T23:05:39.611Z,66.5
2019-04-05T23:05:54.577Z,73.800003
2019-04-05T23:06:09.267Z,72.599998
2019-04-05T23:06:24.640Z,71.099998
2019-04-05T23:06:39.431Z,71
2019-04-05T23:06:54.479Z,71.800003
2019-04-05T23:07:10.569Z,65.599998
2019-04-05T23:07:25.111Z,62.299999
2019-04-05T23:07:42.124Z,60.200001
2019-04-05T23:07:56.575Z,58
2019-04-05T23:08:12.048Z,60.5
2019-04-05T23:08:27.092Z,64.199997
2019-04-05T23:08:43.493Z,68.5
2019-04-05T23:08:58.528Z,68.5
2019-04-05T23:09:13.303Z,67.199997
2019-04-05T23:09:28.321Z,67.900002
2019-04-05T23:09:42.700Z,70
2019-04-05T23:09:57.077Z,72.900002
2019-04-05T23:10:11.444Z,68.300003
2019-04-05T23:10:26.818Z,63.5
2019-04-05T23:10:42.189Z,60.900002
2019-04-05T23:10:56.585Z,60.900002
2019-04-05T23:11:10.959Z,59.599998
2019-04-05T23:11:26.356Z,59.599998
2019-04-05T23:11:41.783Z,58.299999
2019-04-05T23:11:56.169Z,60.900002
2019-04-05T23:12:10.636Z,61.700001
2019-04-05T23:12:25.012Z,63.599998
2019-04-05T23:12:39.415Z,66.300003
2019-04-05T23:12:53.805Z,64.199997
2019-04-05T23:13:08.159Z,63.599998
2019-04-05T23:13:22.545Z,63.5
2019-04-05T23:13:36.969Z,63.299999
2019-04-05T23:13:51.355Z,65.599998
2019-04-05T23:14:05.719Z,64.800003
2019-04-05T23:14:20.140Z,64.300003
2019-04-05T23:14:35.516Z,64.199997
2019-04-05T23:14:49.933Z,63.900002
2019-04-05T23:15:04.352Z,63.900002
2019-04-05T23:15:18.731Z,64.400002
2019-04-05T23:15:33.106Z,66.099998
2019-04-05T23:15:47.485Z,66.199997
2019-04-05T23:16:01.866Z,66.199997
2019-04-05T23:16:16.230Z,66.199997
2019-04-05T23:16:30.671Z,66.199997
2019-04-05T23:16:46.028Z,66.199997
2019-04-05T23:17:00.423Z,66.199997
2019-04-05T23:17:14.820Z,66.199997
2019-04-05T23:17:29.213Z,66.199997
2019-04-05T23:17:43.570Z,66.199997
2019-04-05T23:17:57.947Z,66.199997
2019-04-05T23:18:12.319Z,66.199997
2019-04-05T23:18:27.496Z,66.199997
2019-04-05T23:18:42.931Z,66.199997
2019-04-05T23:18:59.005Z,66.199997
2019-04-05T23:19:13.405Z,66.199997
2019-04-05T23:19:28.773Z,66.199997
2019-04-05T23:19:44.164Z,66.199997
2019-04-05T23:19:59.544Z,66.199997
2019-04-05T23:20:13.935Z,66.199997
2019-04-05T23:20:28.402Z,66.199997
2019-04-05T23:20:42.798Z,66.199997
2019-04-05T23:20:57.212Z,66.199997
2019-04-05T23:21:11.603Z,66.199997
2019-04-05T23:21:26.000Z,66.199997
2019-04-05T23:21:40.363Z,66.199997
2019-04-05T23:21:54.747Z,66.199997
2019-04-05T23:22:10.115Z,66.199997
2019-04-05T23:22:24.581Z,66.199997
2019-04-05T23:22:38.972Z,66.199997
2019-04-05T23:22:53.359Z,66.199997
2019-04-05T23:23:07.765Z,66.199997
2019-04-05T23:23:22.159Z,66.199997
2019-04-05T23:23:36.551Z,66.199997
2019-04-05T23:23:51.767Z,66.199997
2019-04-05T23:24:06.186Z,66.199997
2019-04-05T23:24:20.534Z,66.199997
2019-04-05T23:24:34.939Z,66.199997
2019-04-05T23:24:49.348Z,66.199997
2019-04-05T23:25:03.747Z,66.199997
2019-04-05T23:25:24.064Z,66.199997
2019-04-05T23:25:38.460Z,66.199997
2019-04-05T23:25:52.851Z,66.199997
2019-04-05T23:26:07.275Z,66.199997
2019-04-05T23:26:22.677Z,66.199997
2019-04-05T23:26:38.754Z,66.199997
2019-04-05T23:26:53.150Z,66.199997
2019-04-05T23:27:08.530Z,66.199997
2019-04-05T23:27:22.888Z,66.199997
2019-04-05T23:27:37.262Z,66.199997
2019-04-05T23:27:51.631Z,66.199997
2019-04-05T23:28:05.999Z,66.199997
2019-04-05T23:28:20.394Z,66.199997
2019-04-05T23:28:35.787Z,66.199997
2019-04-05T23:28:50.183Z,66.199997
2019-04-05T23:29:04.562Z,66.199997
2019-04-05T23:29:18.946Z,66.199997
2019-04-05T23:29:34.330Z,66.199997
2019-04-05T23:29:48.714Z,66.199997
2019-04-05T23:30:03.102Z,66.199997
2019-04-05T23:30:17.467Z,66.199997
2019-04-05T23:30:31.822Z,66.199997
2019-04-05T23:30:46.187Z,66.199997
2019-04-05T23:31:00.555Z,66.199997
2019-04-05T23:31:14.967Z,66.199997
2019-04-05T23:31:29.352Z,66.199997
2019-04-05T23:31:43.737Z,66.199997
2019-04-05T23:31:59.108Z,66.199997
2019-04-05T23:32:13.552Z,66.199997
2019-04-05T23:32:27.967Z,66.199997
2019-04-05T23:32:42.435Z,66.199997
2019-04-05T23:32:56.868Z,66.199997
2019-04-05T23:33:12.218Z,66.199997
2019-04-05T23:33:27.608Z,66.199997
2019-04-05T23:33:42.065Z,66.199997
2019-04-05T23:33:56.473Z,66.199997
2019-04-05T23:34:10.873Z,66.199997
2019-04-05T23:34:26.252Z,66.199997
2019-04-05T23:34:40.609Z,66.199997
2019-04-05T23:34:55.032Z,66.199997
2019-04-05T23:35:09.429Z,66.199997
2019-04-05T23:35:23.791Z,66.199997
2019-04-05T23:35:38.142Z,66.199997
2019-04-05T23:35:52.567Z,66.199997
2019-04-05T23:36:09.095Z,66.199997
2019-04-05T23:36:24.481Z,66.199997
2019-04-05T23:36:38.897Z,66.199997
2019-04-05T23:36:53.349Z,66.199997
2019-04-05T23:37:07.723Z,66.199997
2019-04-05T23:37:22.146Z,66.199997
2019-04-05T23:37:36.510Z,66.199997
2019-04-05T23:37:50.899Z,66.199997
2019-04-05T23:38:05.370Z,66.199997
2019-04-05T23:38:19.757Z,66.199997
2019-04-05T23:38:34.123Z,66.199997
2019-04-05T23:38:48.540Z,66.199997
2019-04-05T23:39:02.976Z,66.199997
2019-04-05T23:39:17.360Z,66.199997
2019-04-05T23:39:31.747Z,66.199997
2019-04-05T23:39:46.123Z,66.199997
2019-04-05T23:40:00.539Z,66.199997
2019-04-05T23:40:14.925Z,66.199997
2019-04-05T23:40:30.997Z,66.199997
2019-04-05T23:40:45.358Z,66.199997
2019-04-05T23:40:59.760Z,66.199997
2019-04-05T23:41:15.150Z,66.199997
2019-04-05T23:41:29.528Z,66.199997
2019-04-05T23:41:43.908Z,66.199997
2019-04-05T23:41:58.291Z,66.199997
2019-04-05T23:42:12.694Z,66.199997
2019-04-05T23:42:27.091Z,66.199997
2019-04-05T23:42:41.496Z,66.199997
2019-04-05T23:42:55.907Z,66.199997
2019-04-05T23:43:10.365Z,66.199997
2019-04-05T23:43:24.761Z,66.199997
2019-04-05T23:43:39.171Z,66.199997
2019-04-05T23:43:53.569Z,66.199997
2019-04-05T23:44:07.950Z,66.199997
2019-04-05T23:44:23.318Z,66.199997
2019-04-05T23:44:37.745Z,66.199997
2019-04-05T23:44:53.039Z,66.199997
2019-04-05T23:45:07.417Z,66.199997
2019-04-05T23:45:21.803Z,66.199997
2019-04-05T23:45:36.178Z,66.199997
2019-04-05T23:45:50.547Z,66.199997
2019-04-05T23:46:04.950Z,66.199997
2019-04-05T23:46:19.383Z,66.199997
2019-04-05T23:46:33.755Z,66.199997
2019-04-05T23:46:48.151Z,66.199997
2019-04-05T23:47:03.504Z,66.199997
2019-04-05T23:47:17.887Z,66.199997
2019-04-05T23:47:32.302Z,66.199997
2019-04-05T23:47:46.675Z,66.199997
2019-04-05T23:48:01.102Z,66.199997
2019-04-05T23:48:15.491Z,66.199997
2019-04-05T23:48:30.920Z,66.199997
2019-04-05T23:48:45.355Z,66.199997
2019-04-05T23:48:59.759Z,66.199997
2019-04-05T23:49:14.171Z,66.199997
2019-04-05T23:49:28.550Z,66.199997
2019-04-05T23:49:42.929Z,66.199997
2019-04-05T23:49:57.313Z,66.199997
2019-04-05T23:50:11.729Z,66.199997
2019-04-05T23:50:26.109Z,66.199997
2019-04-05T23:50:40.486Z,66.199997
2019-04-05T23:50:54.876Z,66.199997
2019-04-05T23:51:09.296Z,66.199997
2019-04-05T23:51:23.695Z,66.199997
2019-04-05T23:51:38.093Z,66.199997
2019-04-05T23:51:52.456Z,66.199997
2019-04-05T23:52:06.845Z,66.199997
2019-04-05T23:52:21.360Z,66.199997
2019-04-05T23:52:35.741Z,59.299999
2019-04-05T23:52:50.156Z,60.099998
2019-04-05T23:53:04.544Z,64.800003
2019-04-05T23:53:19.919Z,76.699997
2019-04-05T23:53:34.290Z,73.400002
2019-04-05T23:53:48.741Z,59.099998
2019-04-05T23:54:03.087Z,53.5
2019-04-05T23:54:17.481Z,68.699997
2019-04-05T23:54:31.857Z,91
2019-04-05T23:54:46.241Z,111.5
2019-04-05T23:55:00.637Z,130.89999
2019-04-05T23:55:16.000Z,130.89999
2019-04-05T23:55:36.325Z,131
2019-04-05T23:55:50.689Z,127.5
2019-04-05T23:56:05.106Z,111.4
2019-04-05T23:56:19.478Z,101.5
2019-04-05T23:56:33.861Z,93.599998
2019-04-05T23:56:48.264Z,91.199997
2019-04-05T23:57:02.715Z,86.599998
2019-04-05T23:57:18.035Z,85.800003
2019-04-05T23:57:32.400Z,80.800003
2019-04-05T23:57:46.809Z,86.800003
2019-04-05T23:58:02.158Z,88.599998
2019-04-05T23:58:17.560Z,84.900002
2019-04-05T23:58:31.937Z,84.900002
2019-04-05T23:58:46.303Z,85.400002
2019-04-05T23:59:00.695Z,91.199997
2019-04-05T23:59:16.078Z,91.900002
2019-04-05T23:59:31.431Z,87.800003
2019-04-05T23:59:45.825Z,85
